sensor_id;sensor_type;location;lat;lon;timestamp;pressure;altitude;pressure_sealevel;temperature;humidity
69221;BME280;56331;51.992;20.910;2023-02-13T00:02:26;101881.87;;;21.53;36.05
69221;BME280;56331;51.992;20.910;2023-02-13T00:04:52;101879.66;;;21.52;36.05
69221;BME280;56331;51.992;20.910;2023-02-13T00:07:19;101884.07;;;21.53;36.02
69221;BME280;56331;51.992;20.910;2023-02-13T00:09:45;101876.32;;;21.53;36.06
69221;BME280;56331;51.992;20.910;2023-02-13T00:12:12;101882.44;;;21.52;36.09
69221;BME280;56331;51.992;20.910;2023-02-13T00:14:38;101875.83;;;21.51;36.05
69221;BME280;56331;51.992;20.910;2023-02-13T00:17:05;101875.83;;;21.51;36.04
69221;BME280;56331;51.992;20.910;2023-02-13T00:19:32;101868.05;;;21.50;36.00
69221;BME280;56331;51.992;20.910;2023-02-13T00:21:59;101870.56;;;21.49;36.01
69221;BME280;56331;51.992;20.910;2023-02-13T00:24:25;101877.50;;;21.49;36.08
69221;BME280;56331;51.992;20.910;2023-02-13T00:26:52;101878.31;;;21.50;36.03
69221;BME280;56331;51.992;20.910;2023-02-13T00:29:18;101874.73;;;21.49;36.00
69221;BME280;56331;51.992;20.910;2023-02-13T00:31:45;101871.70;;;21.48;36.04
69221;BME280;56331;51.992;20.910;2023-02-13T00:34:11;101868.94;;;21.48;36.02
69221;BME280;56331;51.992;20.910;2023-02-13T00:36:38;101862.81;;;21.49;36.01
69221;BME280;56331;51.992;20.910;2023-02-13T00:39:04;101862.00;;;21.48;36.04
69221;BME280;56331;51.992;20.910;2023-02-13T00:41:31;101865.59;;;21.49;35.98
69221;BME280;56331;51.992;20.910;2023-02-13T00:43:57;101869.47;;;21.48;35.95
69221;BME280;56331;51.992;20.910;2023-02-13T00:46:30;101870.32;;;21.48;36.01
69221;BME280;56331;51.992;20.910;2023-02-13T00:48:56;101857.56;;;21.47;36.01
69221;BME280;56331;51.992;20.910;2023-02-13T00:51:22;101856.17;;;21.47;35.96
69221;BME280;56331;51.992;20.910;2023-02-13T00:53:49;101860.33;;;21.47;35.95
69221;BME280;56331;51.992;20.910;2023-02-13T00:56:15;101858.95;;;21.47;35.95
69221;BME280;56331;51.992;20.910;2023-02-13T00:58:42;101858.13;;;21.47;35.93
69221;BME280;56331;51.992;20.910;2023-02-13T01:01:08;101851.45;;;21.48;35.94
69221;BME280;56331;51.992;20.910;2023-02-13T01:03:35;101850.63;;;21.47;35.98
69221;BME280;56331;51.992;20.910;2023-02-13T01:06:02;101850.63;;;21.47;35.94
69221;BME280;56331;51.992;20.910;2023-02-13T01:08:28;101842.63;;;21.46;35.92
69221;BME280;56331;51.992;20.910;2023-02-13T01:10:55;101845.66;;;21.47;35.91
69221;BME280;56331;51.992;20.910;2023-02-13T01:13:22;101849.56;;;21.46;35.96
69221;BME280;56331;51.992;20.910;2023-02-13T01:15:49;101848.18;;;21.46;35.89
69221;BME280;56331;51.992;20.910;2023-02-13T01:18:19;101852.88;;;21.45;35.92
69221;BME280;56331;51.992;20.910;2023-02-13T01:21:00;101858.98;;;21.45;35.95
69221;BME280;56331;51.992;20.910;2023-02-13T01:23:32;101854.26;;;21.45;35.93
69221;BME280;56331;51.992;20.910;2023-02-13T01:25:59;101856.78;;;21.44;35.90
69221;BME280;56331;51.992;20.910;2023-02-13T01:28:28;101852.88;;;21.45;35.87
69221;BME280;56331;51.992;20.910;2023-02-13T01:30:55;101855.40;;;21.44;35.87
69221;BME280;56331;51.992;20.910;2023-02-13T01:33:23;101851.23;;;21.44;35.90
69221;BME280;56331;51.992;20.910;2023-02-13T01:35:50;101852.62;;;21.44;35.88
69221;BME280;56331;51.992;20.910;2023-02-13T01:38:17;101851.23;;;21.44;35.88
69221;BME280;56331;51.992;20.910;2023-02-13T01:40:48;101847.89;;;21.45;35.88
69221;BME280;56331;51.992;20.910;2023-02-13T01:43:15;101841.78;;;21.45;35.88
69221;BME280;56331;51.992;20.910;2023-02-13T01:45:43;101840.15;;;21.44;35.88
69221;BME280;56331;51.992;20.910;2023-02-13T01:48:18;101845.70;;;21.44;35.83
69221;BME280;56331;51.992;20.910;2023-02-13T01:50:57;101832.12;;;21.43;35.81
69221;BME280;56331;51.992;20.910;2023-02-13T01:53:25;101825.47;;;21.44;35.82
69221;BME280;56331;51.992;20.910;2023-02-13T01:55:55;101832.40;;;21.44;35.89
69221;BME280;56331;51.992;20.910;2023-02-13T01:58:24;101830.45;;;21.44;35.85
69221;BME280;56331;51.992;20.910;2023-02-13T02:00:50;101834.36;;;21.43;35.80
69221;BME280;56331;51.992;20.910;2023-02-13T02:03:24;101835.47;;;21.42;35.78
69221;BME280;56331;51.992;20.910;2023-02-13T02:05:50;101834.89;;;21.43;35.82
69221;BME280;56331;51.992;20.910;2023-02-13T02:08:18;101841.28;;;21.43;35.81
69221;BME280;56331;51.992;20.910;2023-02-13T02:10:44;101841.28;;;21.43;35.79
69221;BME280;56331;51.992;20.910;2023-02-13T02:13:14;101827.14;;;21.42;35.83
69221;BME280;56331;51.992;20.910;2023-02-13T02:15:42;101822.42;;;21.43;35.82
69221;BME280;56331;51.992;20.910;2023-02-13T02:18:14;101826.86;;;21.44;35.76
69221;BME280;56331;51.992;20.910;2023-02-13T02:23:47;101824.66;;;21.43;35.76
69221;BME280;56331;51.992;20.910;2023-02-13T02:41:18;101828.85;;;21.40;35.75
69221;BME280;56331;51.992;20.910;2023-02-13T02:44:05;101823.03;;;21.39;35.76
69221;BME280;56331;51.992;20.910;2023-02-13T02:46:36;101827.19;;;21.39;35.71
69221;BME280;56331;51.992;20.910;2023-02-13T02:49:14;101828.00;;;21.40;35.70
69221;BME280;56331;51.992;20.910;2023-02-13T02:52:04;101824.98;;;21.39;35.71
69221;BME280;56331;51.992;20.910;2023-02-13T02:54:46;101840.23;;;21.39;35.69
69221;BME280;56331;51.992;20.910;2023-02-13T02:57:32;101834.94;;;21.40;35.69
69221;BME280;56331;51.992;20.910;2023-02-13T03:00:20;101839.41;;;21.38;35.72
69221;BME280;56331;51.992;20.910;2023-02-13T03:03:19;101834.69;;;21.39;35.72
69221;BME280;56331;51.992;20.910;2023-02-13T03:06:20;101827.47;;;21.40;35.52
69221;BME280;56331;51.992;20.910;2023-02-13T03:08:56;101832.44;;;21.41;35.29
69221;BME280;56331;51.992;20.910;2023-02-13T03:11:44;101829.34;;;21.43;35.22
69221;BME280;56331;51.992;20.910;2023-02-13T03:14:30;101828.81;;;21.43;35.10
69221;BME280;56331;51.992;20.910;2023-02-13T03:16:57;101832.97;;;21.43;35.01
69221;BME280;56331;51.992;20.910;2023-02-13T03:19:54;101832.97;;;21.43;34.98
69221;BME280;56331;51.992;20.910;2023-02-13T03:39:43;101833.47;;;21.45;34.60
69221;BME280;56331;51.992;20.910;2023-02-13T03:42:34;101837.63;;;21.45;34.57
69221;BME280;56331;51.992;20.910;2023-02-13T03:45:02;101832.08;;;21.45;34.54
69221;BME280;56331;51.992;20.910;2023-02-13T03:47:52;101831.27;;;21.45;34.49
69221;BME280;56331;51.992;20.910;2023-02-13T03:50:20;101835.42;;;21.45;34.43
69221;BME280;56331;51.992;20.910;2023-02-13T03:53:05;101835.42;;;21.45;34.42
69221;BME280;56331;51.992;20.910;2023-02-13T03:55:37;101837.91;;;21.46;34.40
69221;BME280;56331;51.992;20.910;2023-02-13T04:01:21;101841.78;;;21.45;34.30
69221;BME280;56331;51.992;20.910;2023-02-13T04:07:07;101841.53;;;21.44;34.48
69221;BME280;56331;51.992;20.910;2023-02-13T04:09:32;101837.95;;;21.44;34.51
69221;BME280;56331;51.992;20.910;2023-02-13T04:14:38;101833.02;;;21.40;34.59
69221;BME280;56331;51.992;20.910;2023-02-13T04:17:06;101836.32;;;21.40;34.62
69221;BME280;56331;51.992;20.910;2023-02-13T04:19:33;101830.53;;;21.39;34.65
69221;BME280;56331;51.992;20.910;2023-02-13T04:22:01;101831.66;;;21.38;34.64
69221;BME280;56331;51.992;20.910;2023-02-13T04:24:28;101824.98;;;21.39;34.65
69221;BME280;56331;51.992;20.910;2023-02-13T04:26:55;101821.96;;;21.38;34.62
69221;BME280;56331;51.992;20.910;2023-02-13T04:29:23;101821.39;;;21.38;34.62
69221;BME280;56331;51.992;20.910;2023-02-13T04:31:52;101823.34;;;21.38;34.66
69221;BME280;56331;51.992;20.910;2023-02-13T04:34:18;101824.17;;;21.36;34.64
69221;BME280;56331;51.992;20.910;2023-02-13T04:36:44;101818.06;;;21.36;34.62
69221;BME280;56331;51.992;20.910;2023-02-13T04:39:13;101822.47;;;21.37;34.67
69221;BME280;56331;51.992;20.910;2023-02-13T04:41:40;101815.29;;;21.36;34.67
69221;BME280;56331;51.992;20.910;2023-02-13T04:44:06;101813.91;;;21.36;34.67
69221;BME280;56331;51.992;20.910;2023-02-13T04:46:32;101811.70;;;21.36;34.68
69221;BME280;56331;51.992;20.910;2023-02-13T04:48:59;101816.67;;;21.36;34.73
69221;BME280;56331;51.992;20.910;2023-02-13T04:51:26;101816.67;;;21.36;34.71
69221;BME280;56331;51.992;20.910;2023-02-13T04:53:52;101821.41;;;21.36;34.67
69221;BME280;56331;51.992;20.910;2023-02-13T04:56:18;101813.91;;;21.36;34.73
69221;BME280;56331;51.992;20.910;2023-02-13T04:58:45;101812.52;;;21.36;34.77
69221;BME280;56331;51.992;20.910;2023-02-13T05:01:12;101815.86;;;21.36;34.77
69221;BME280;56331;51.992;20.910;2023-02-13T05:03:40;101811.95;;;21.37;34.79
69221;BME280;56331;51.992;20.910;2023-02-13T05:06:09;101812.52;;;21.36;34.78
69221;BME280;56331;51.992;20.910;2023-02-13T05:08:36;101813.34;;;21.37;34.84
69221;BME280;56331;51.992;20.910;2023-02-13T05:11:02;101822.79;;;21.36;34.85
69221;BME280;56331;51.992;20.910;2023-02-13T05:13:29;101819.20;;;21.35;34.87
69221;BME280;56331;51.992;20.910;2023-02-13T05:15:58;101828.90;;;21.35;34.87
69221;BME280;56331;51.992;20.910;2023-02-13T05:18:24;101829.44;;;21.35;34.92
69221;BME280;56331;51.992;20.910;2023-02-13T05:20:52;101830.83;;;21.35;34.94
69221;BME280;56331;51.992;20.910;2023-02-13T05:23:37;101824.74;;;21.35;34.94
69221;BME280;56331;51.992;20.910;2023-02-13T05:26:03;101821.97;;;21.35;34.98
69221;BME280;56331;51.992;20.910;2023-02-13T05:28:30;101821.97;;;21.35;34.99
69221;BME280;56331;51.992;20.910;2023-02-13T05:31:16;101823.08;;;21.34;34.99
69221;BME280;56331;51.992;20.910;2023-02-13T05:33:42;101827.52;;;21.35;35.01
69221;BME280;56331;51.992;20.910;2023-02-13T05:36:09;101824.46;;;21.34;35.05
69221;BME280;56331;51.992;20.910;2023-02-13T05:38:35;101830.01;;;21.34;35.04
69221;BME280;56331;51.992;20.910;2023-02-13T05:41:02;101835.55;;;21.34;35.06
69221;BME280;56331;51.992;20.910;2023-02-13T05:43:28;101837.75;;;21.35;35.07
69221;BME280;56331;51.992;20.910;2023-02-13T05:46:03;101836.13;;;21.34;35.04
69221;BME280;56331;51.992;20.910;2023-02-13T05:48:31;101840.53;;;21.35;35.01
69221;BME280;56331;51.992;20.910;2023-02-13T05:50:57;101843.87;;;21.34;35.01
69221;BME280;56331;51.992;20.910;2023-02-13T05:53:24;101841.09;;;21.34;35.05
69221;BME280;56331;51.992;20.910;2023-02-13T05:55:53;101845.25;;;21.34;35.05
69221;BME280;56331;51.992;20.910;2023-02-13T05:58:20;101852.19;;;21.34;35.05
69221;BME280;56331;51.992;20.910;2023-02-13T06:00:47;101854.66;;;21.36;35.03
69221;BME280;56331;51.992;20.910;2023-02-13T06:03:13;101853.00;;;21.35;35.03
69221;BME280;56331;51.992;20.910;2023-02-13T06:05:40;101851.33;;;21.36;34.80
69221;BME280;56331;51.992;20.910;2023-02-13T06:08:07;101859.89;;;21.37;34.67
69221;BME280;56331;51.992;20.910;2023-02-13T06:10:33;101856.61;;;21.38;34.59
69221;BME280;56331;51.992;20.910;2023-02-13T06:13:00;101851.89;;;21.38;34.50
69221;BME280;56331;51.992;20.910;2023-02-13T06:15:27;101859.64;;;21.39;34.43
69221;BME280;56331;51.992;20.910;2023-02-13T06:17:55;101854.91;;;21.39;34.35
69221;BME280;56331;51.992;20.910;2023-02-13T06:20:22;101853.80;;;21.40;34.26
69221;BME280;56331;51.992;20.910;2023-02-13T06:22:52;101849.89;;;21.41;34.23
69221;BME280;56331;51.992;20.910;2023-02-13T06:25:19;101851.28;;;21.41;34.20
69221;BME280;56331;51.992;20.910;2023-02-13T06:27:47;101863.19;;;21.42;34.18
69221;BME280;56331;51.992;20.910;2023-02-13T06:30:14;101852.09;;;21.42;34.18
69221;BME280;56331;51.992;20.910;2023-02-13T06:32:41;101844.34;;;21.41;34.13
69221;BME280;56331;51.992;20.910;2023-02-13T06:35:11;101845.16;;;21.42;34.04
69221;BME280;56331;51.992;20.910;2023-02-13T06:37:37;101845.16;;;21.42;33.96
69221;BME280;56331;51.992;20.910;2023-02-13T06:40:06;101852.91;;;21.43;33.96
69221;BME280;56331;51.992;20.910;2023-02-13T06:42:32;101851.53;;;21.43;34.01
69221;BME280;56331;51.992;20.910;2023-02-13T06:44:59;101852.91;;;21.43;34.08
69221;BME280;56331;51.992;20.910;2023-02-13T06:47:25;101854.30;;;21.43;34.15
69221;BME280;56331;51.992;20.910;2023-02-13T06:49:52;101852.91;;;21.43;34.21
69221;BME280;56331;51.992;20.910;2023-02-13T06:52:18;101857.92;;;21.43;34.15
69221;BME280;56331;51.992;20.910;2023-02-13T06:54:45;101857.92;;;21.43;34.18
69221;BME280;56331;51.992;20.910;2023-02-13T06:57:11;101860.69;;;21.43;34.13
69221;BME280;56331;51.992;20.910;2023-02-13T06:59:38;101867.63;;;21.43;34.15
69221;BME280;56331;51.992;20.910;2023-02-13T07:02:04;101862.90;;;21.44;34.20
69221;BME280;56331;51.992;20.910;2023-02-13T07:04:31;101868.44;;;21.44;34.23
69221;BME280;56331;51.992;20.910;2023-02-13T07:06:57;101868.44;;;21.44;34.28
69221;BME280;56331;51.992;20.910;2023-02-13T07:09:27;101869.83;;;21.44;34.23
69221;BME280;56331;51.992;20.910;2023-02-13T07:11:53;101874.23;;;21.45;34.19
69221;BME280;56331;51.992;20.910;2023-02-13T07:14:22;101878.39;;;21.45;34.14
69221;BME280;56331;51.992;20.910;2023-02-13T07:16:50;101872.60;;;21.44;34.17
69221;BME280;56331;51.992;20.910;2023-02-13T07:19:20;101878.97;;;21.44;34.28
69221;BME280;56331;51.992;20.910;2023-02-13T07:21:49;101871.22;;;21.44;34.27
69221;BME280;56331;51.992;20.910;2023-02-13T07:24:20;101874.80;;;21.44;34.39
69221;BME280;56331;51.992;20.910;2023-02-13T07:26:46;101874.80;;;21.44;34.57
69221;BME280;56331;51.992;20.910;2023-02-13T07:29:12;101864.85;;;21.43;34.71
69221;BME280;56331;51.992;20.910;2023-02-13T07:31:39;101861.77;;;21.45;34.79
69221;BME280;56331;51.992;20.910;2023-02-13T07:34:16;101858.17;;;21.44;34.86
69221;BME280;56331;51.992;20.910;2023-02-13T07:36:43;101852.06;;;21.45;34.94
69221;BME280;56331;51.992;20.910;2023-02-13T07:39:09;101849.85;;;21.44;35.07
69221;BME280;56331;51.992;20.910;2023-02-13T07:41:36;101855.40;;;21.44;35.14
69221;BME280;56331;51.992;20.910;2023-02-13T07:44:03;101851.48;;;21.45;35.14
69221;BME280;56331;51.992;20.910;2023-02-13T07:46:29;101857.35;;;21.44;35.21
69221;BME280;56331;51.992;20.910;2023-02-13T07:48:56;101856.78;;;21.44;35.23
69221;BME280;56331;51.992;20.910;2023-02-13T07:51:22;101855.69;;;21.43;35.30
69221;BME280;56331;51.992;20.910;2023-02-13T07:53:54;101859.30;;;21.43;35.33
69221;BME280;56331;51.992;20.910;2023-02-13T07:56:20;101853.48;;;21.42;35.49
69221;BME280;56331;51.992;20.910;2023-02-13T07:58:49;101858.45;;;21.43;35.55
69221;BME280;56331;51.992;20.910;2023-02-13T08:01:16;101861.23;;;21.43;35.61
69221;BME280;56331;51.992;20.910;2023-02-13T08:03:42;101862.62;;;21.43;35.87
69221;BME280;56331;51.992;20.910;2023-02-13T08:06:10;101859.84;;;21.43;36.14
69221;BME280;56331;51.992;20.910;2023-02-13T08:08:37;101857.92;;;21.43;36.20
69221;BME280;56331;51.992;20.910;2023-02-13T08:11:06;101855.15;;;21.43;36.26
69221;BME280;56331;51.992;20.910;2023-02-13T08:13:51;101862.08;;;21.43;36.36
69221;BME280;56331;51.992;20.910;2023-02-13T08:16:18;101867.05;;;21.44;36.43
69221;BME280;56331;51.992;20.910;2023-02-13T08:18:44;101870.64;;;21.44;36.49
69221;BME280;56331;51.992;20.910;2023-02-13T08:21:11;101860.37;;;21.45;37.22
69221;BME280;56331;51.992;20.910;2023-02-13T08:23:39;101855.92;;;21.46;37.47
69221;BME280;56331;51.992;20.910;2023-02-13T08:26:05;101853.16;;;21.46;37.48
69221;BME280;56331;51.992;20.910;2023-02-13T08:28:33;101841.74;;;21.48;37.32
69221;BME280;56331;51.992;20.910;2023-02-13T08:30:59;101849.20;;;21.50;37.10
69221;BME280;56331;51.992;20.910;2023-02-13T08:33:26;101857.80;;;21.51;36.92
69221;BME280;56331;51.992;20.910;2023-02-13T08:35:52;101845.82;;;21.53;36.83
69221;BME280;56331;51.992;20.910;2023-02-13T08:38:19;101836.39;;;21.54;36.79
69221;BME280;56331;51.992;20.910;2023-02-13T08:40:46;101838.03;;;21.55;36.74
69221;BME280;56331;51.992;20.910;2023-02-13T08:43:12;101839.12;;;21.56;36.71
69221;BME280;56331;51.992;20.910;2023-02-13T08:45:39;101837.17;;;21.57;36.82
69221;BME280;56331;51.992;20.910;2023-02-13T08:48:05;101838.55;;;21.57;36.99
69221;BME280;56331;51.992;20.910;2023-02-13T08:50:34;101845.73;;;21.58;37.20
69221;BME280;56331;51.992;20.910;2023-02-13T08:53:00;101844.06;;;21.59;37.39
69221;BME280;56331;51.992;20.910;2023-02-13T08:55:27;101838.77;;;21.60;37.48
69221;BME280;56331;51.992;20.910;2023-02-13T08:58:00;101831.78;;;21.63;37.58
69221;BME280;56331;51.992;20.910;2023-02-13T09:00:28;101824.03;;;21.62;37.84
69221;BME280;56331;51.992;20.910;2023-02-13T09:03:00;101829.54;;;21.65;38.10
69221;BME280;56331;51.992;20.910;2023-02-13T09:05:30;101831.45;;;21.67;38.19
69221;BME280;56331;51.992;20.910;2023-02-13T09:07:59;101818.11;;;21.69;38.14
69221;BME280;56331;51.992;20.910;2023-02-13T09:10:26;101827.77;;;21.72;38.21
69221;BME280;56331;51.992;20.910;2023-02-13T09:12:53;101823.30;;;21.73;38.18
69221;BME280;56331;51.992;20.910;2023-02-13T09:15:20;101822.72;;;21.74;38.17
69221;BME280;56331;51.992;20.910;2023-02-13T09:17:46;101809.37;;;21.76;38.21
69221;BME280;56331;51.992;20.910;2023-02-13T09:20:13;101816.84;;;21.78;38.18
69221;BME280;56331;51.992;20.910;2023-02-13T09:22:40;101818.47;;;21.79;38.15
69221;BME280;56331;51.992;20.910;2023-02-13T09:25:08;101819.86;;;21.79;38.04
69221;BME280;56331;51.992;20.910;2023-02-13T09:27:35;101834.55;;;21.79;37.95
69221;BME280;56331;51.992;20.910;2023-02-13T09:30:08;101829.27;;;21.80;37.84
69221;BME280;56331;51.992;20.910;2023-02-13T09:32:35;101818.17;;;21.80;37.75
69221;BME280;56331;51.992;20.910;2023-02-13T09:35:06;101825.93;;;21.81;37.59
69221;BME280;56331;51.992;20.910;2023-02-13T09:37:32;101821.20;;;21.81;37.37
69221;BME280;56331;51.992;20.910;2023-02-13T09:39:59;101822.02;;;21.82;37.14
69221;BME280;56331;51.992;20.910;2023-02-13T09:42:28;101826.75;;;21.81;36.90
69221;BME280;56331;51.992;20.910;2023-02-13T09:44:59;101826.75;;;21.81;36.69
69221;BME280;56331;51.992;20.910;2023-02-13T09:47:27;101819.00;;;21.81;36.49
69221;BME280;56331;51.992;20.910;2023-02-13T09:50:03;101822.39;;;21.78;36.30
69221;BME280;56331;51.992;20.910;2023-02-13T09:52:35;101827.61;;;21.79;36.29
69221;BME280;56331;51.992;20.910;2023-02-13T09:55:14;101827.61;;;21.79;36.24
69221;BME280;56331;51.992;20.910;2023-02-13T09:58:18;101830.09;;;21.81;36.11
69221;BME280;56331;51.992;20.910;2023-02-13T10:00:41;101828.70;;;21.81;36.06
69221;BME280;56331;51.992;20.910;2023-02-13T10:06:01;101827.89;;;21.80;35.82
69221;BME280;56331;51.992;20.910;2023-02-13T10:11:22;101839.51;;;21.82;35.76
69221;BME280;56331;51.992;20.910;2023-02-13T10:16:26;101827.27;;;21.83;35.65
69221;BME280;56331;51.992;20.910;2023-02-13T10:18:53;101834.45;;;21.84;35.57
69221;BME280;56331;51.992;20.910;2023-02-13T10:21:23;101833.96;;;21.82;35.59
69221;BME280;56331;51.992;20.910;2023-02-13T10:23:53;101841.14;;;21.83;35.79
69221;BME280;56331;51.992;20.910;2023-02-13T10:26:34;101847.47;;;21.87;36.21
69221;BME280;56331;51.992;20.910;2023-02-13T10:29:07;101850.23;;;21.87;36.16
69221;BME280;56331;51.992;20.910;2023-02-13T10:31:38;101858.52;;;21.89;36.18
69221;BME280;56331;51.992;20.910;2023-02-13T10:34:11;101847.17;;;21.88;36.14
69221;BME280;56331;51.992;20.910;2023-02-13T10:36:39;101849.63;;;21.90;36.19
69221;BME280;56331;51.992;20.910;2023-02-13T10:39:20;101844.08;;;21.90;36.38
69221;BME280;56331;51.992;20.910;2023-02-13T10:48:05;101835.16;;;21.93;36.66
69221;BME280;56331;51.992;20.910;2023-02-13T10:58:48;101825.95;;;21.95;36.56
69221;BME280;56331;51.992;20.910;2023-02-13T11:01:18;101822.06;;;21.96;36.60
69221;BME280;56331;51.992;20.910;2023-02-13T11:03:48;101825.95;;;21.95;36.53
69221;BME280;56331;51.992;20.910;2023-02-13T11:06:15;101817.91;;;21.96;36.40
69221;BME280;56331;51.992;20.910;2023-02-13T11:08:46;101809.05;;;21.94;36.36
69221;BME280;56331;51.992;20.910;2023-02-13T11:11:34;101808.76;;;21.95;36.29
69221;BME280;56331;51.992;20.910;2023-02-13T11:16:44;101798.72;;;21.97;36.06
69221;BME280;56331;51.992;20.910;2023-02-13T11:19:12;101811.21;;;21.97;35.98
69221;BME280;56331;51.992;20.910;2023-02-13T11:21:35;101800.11;;;21.97;36.03
69221;BME280;56331;51.992;20.910;2023-02-13T11:24:04;101804.27;;;21.97;36.05
69221;BME280;56331;51.992;20.910;2023-02-13T11:26:35;101800.39;;;21.98;36.21
69221;BME280;56331;51.992;20.910;2023-02-13T11:31:59;101810.34;;;21.99;36.44
69221;BME280;56331;51.992;20.910;2023-02-13T11:34:33;101804.80;;;21.99;36.66
69221;BME280;56331;51.992;20.910;2023-02-13T11:39:53;101807.28;;;22.00;36.95
69221;BME280;56331;51.992;20.910;2023-02-13T11:44:59;101807.48;;;22.04;37.18
69221;BME280;56331;51.992;20.910;2023-02-13T11:47:38;101800.30;;;22.03;37.26
69221;BME280;56331;51.992;20.910;2023-02-13T11:50:24;101792.45;;;22.05;37.18
69221;BME280;56331;51.992;20.910;2023-02-13T11:52:59;101794.41;;;22.04;37.12
69221;BME280;56331;51.992;20.910;2023-02-13T11:55:32;101797.77;;;22.04;37.01
69221;BME280;56331;51.992;20.910;2023-02-13T12:00:34;101791.64;;;22.04;36.77
69221;BME280;56331;51.992;20.910;2023-02-13T12:03:29;101788.87;;;22.04;36.62
69221;BME280;56331;51.992;20.910;2023-02-13T12:06:14;101778.58;;;22.05;36.54
69221;BME280;56331;51.992;20.910;2023-02-13T12:08:45;101769.44;;;22.04;36.34
69221;BME280;56331;51.992;20.910;2023-02-13T12:11:23;101762.50;;;22.04;36.09
69221;BME280;56331;51.992;20.910;2023-02-13T12:13:51;101758.09;;;22.03;35.93
69221;BME280;56331;51.992;20.910;2023-02-13T12:19:10;101766.14;;;22.02;35.64
69221;BME280;56331;51.992;20.910;2023-02-13T12:29:56;101734.56;;;22.01;35.74
69221;BME280;56331;51.992;20.910;2023-02-13T12:32:40;101727.05;;;22.01;35.79
69221;BME280;56331;51.992;20.910;2023-02-13T12:38:06;101720.69;;;22.01;35.87
69221;BME280;56331;51.992;20.910;2023-02-13T12:54:50;101721.97;;;22.06;35.98
69221;BME280;56331;51.992;20.910;2023-02-13T12:57:35;101718.87;;;22.07;35.91
69221;BME280;56331;51.992;20.910;2023-02-13T13:06:00;101703.61;;;22.07;35.87
69221;BME280;56331;51.992;20.910;2023-02-13T13:08:37;101710.81;;;22.09;35.92
69221;BME280;56331;51.992;20.910;2023-02-13T13:11:22;101697.75;;;22.09;36.03
69221;BME280;56331;51.992;20.910;2023-02-13T13:22:16;101691.83;;;22.13;36.60
69221;BME280;56331;51.992;20.910;2023-02-13T13:25:01;101684.89;;;22.13;36.75
69221;BME280;56331;51.992;20.910;2023-02-13T13:27:36;101676.27;;;22.15;36.82
69221;BME280;56331;51.992;20.910;2023-02-13T13:30:05;101674.30;;;22.15;36.92
69221;BME280;56331;51.992;20.910;2023-02-13T13:32:59;101670.95;;;22.16;36.95
69221;BME280;56331;51.992;20.910;2023-02-13T13:35:26;101665.41;;;22.16;36.86
69221;BME280;56331;51.992;20.910;2023-02-13T13:51:45;101661.19;;;22.18;36.25
69221;BME280;56331;51.992;20.910;2023-02-13T13:59:17;101669.81;;;22.19;36.75
69221;BME280;56331;51.992;20.910;2023-02-13T14:01:44;101670.63;;;22.20;36.88
69221;BME280;56331;51.992;20.910;2023-02-13T14:09:41;101678.09;;;22.22;37.04
69221;BME280;56331;51.992;20.910;2023-02-13T14:14:57;101673.05;;;22.24;37.23
69221;BME280;56331;51.992;20.910;2023-02-13T14:23:07;101666.05;;;22.26;37.41
69221;BME280;56331;51.992;20.910;2023-02-13T14:25:36;101672.67;;;22.28;37.44
69221;BME280;56331;51.992;20.910;2023-02-13T14:28:04;101673.48;;;22.28;37.55
69221;BME280;56331;51.992;20.910;2023-02-13T14:30:34;101661.50;;;22.31;37.49
69221;BME280;56331;51.992;20.910;2023-02-13T14:33:04;101662.59;;;22.32;37.53
69221;BME280;56331;51.992;20.910;2023-02-13T14:35:34;101663.41;;;22.33;37.58
69221;BME280;56331;51.992;20.910;2023-02-13T14:38:04;101666.42;;;22.34;37.54
69221;BME280;56331;51.992;20.910;2023-02-13T14:41:00;101653.06;;;22.36;37.37
69221;BME280;56331;51.992;20.910;2023-02-13T14:43:45;101646.87;;;22.39;37.45
69221;BME280;56331;51.992;20.910;2023-02-13T14:48:46;101643.53;;;22.39;37.95
69221;BME280;56331;51.992;20.910;2023-02-13T14:51:29;101634.95;;;22.38;38.10
69221;BME280;56331;51.992;20.910;2023-02-13T14:53:51;101651.86;;;22.39;38.09
69221;BME280;56331;51.992;20.910;2023-02-13T14:56:21;101655.48;;;22.40;37.90
69221;BME280;56331;51.992;20.910;2023-02-13T14:59:15;101658.80;;;22.39;37.60
69221;BME280;56331;51.992;20.910;2023-02-13T15:01:49;101656.02;;;22.39;37.34
69221;BME280;56331;51.992;20.910;2023-02-13T15:04:25;101647.16;;;22.40;37.05
69221;BME280;56331;51.992;20.910;2023-02-13T15:06:52;101655.48;;;22.40;36.84
69221;BME280;56331;51.992;20.910;2023-02-13T15:09:35;101651.05;;;22.39;36.63
69221;BME280;56331;51.992;20.910;2023-02-13T15:12:21;101650.23;;;22.38;36.42
69221;BME280;56331;51.992;20.910;2023-02-13T15:14:35;101659.70;;;22.37;36.23
69221;BME280;56331;51.992;20.910;2023-02-13T15:19:37;101643.34;;;22.36;35.92
69221;BME280;56331;51.992;20.910;2023-02-13T15:22:05;101653.87;;;22.36;35.78
69221;BME280;56331;51.992;20.910;2023-02-13T15:24:42;101666.42;;;22.34;35.67
69221;BME280;56331;51.992;20.910;2023-02-13T15:27:06;101656.71;;;22.34;35.49
69221;BME280;56331;51.992;20.910;2023-02-13T15:29:33;101658.09;;;22.34;35.41
69221;BME280;56331;51.992;20.910;2023-02-13T15:31:59;101656.47;;;22.33;35.27
69221;BME280;56331;51.992;20.910;2023-02-13T15:34:31;101642.34;;;22.32;35.20
69221;BME280;56331;51.992;20.910;2023-02-13T15:36:59;101640.96;;;22.32;35.13
69221;BME280;56331;51.992;20.910;2023-02-13T15:39:29;101621.02;;;22.30;35.01